createdAt,value
2019-03-13T00:02:59.899Z,2.78
2019-03-13T00:08:54.895Z,4.38
2019-03-13T00:14:49.934Z,3.58
2019-03-13T00:20:44.901Z,3.43
2019-03-13T00:26:39.907Z,3.85
2019-03-13T00:32:34.932Z,3.17
2019-03-13T00:38:29.931Z,3.1
2019-03-13T00:44:24.916Z,4.67
2019-03-13T00:50:19.937Z,4.12
2019-03-13T00:56:14.919Z,3.24
2019-03-13T01:02:09.945Z,3.38
2019-03-13T01:08:04.970Z,3.37
2019-03-13T01:13:59.955Z,3.04
2019-03-13T01:19:55.033Z,3.4
2019-03-13T01:25:49.939Z,3.71
2019-03-13T01:31:44.944Z,3.95
2019-03-13T01:37:39.979Z,3.5
2019-03-13T01:43:34.979Z,3.63
2019-03-13T01:49:29.993Z,4.15
2019-03-13T01:55:25.050Z,3.51
2019-03-13T02:01:19.990Z,3.17
2019-03-13T02:07:14.983Z,3.59
2019-03-13T02:13:09.968Z,3.65
2019-03-13T02:19:04.986Z,3.53
2019-03-13T02:24:59.990Z,4.07
2019-03-13T02:30:54.998Z,3.87
2019-03-13T02:36:49.994Z,3.98
2019-03-13T02:42:45.036Z,4.08
2019-03-13T02:48:39.994Z,4.02
2019-03-13T02:54:35.024Z,3.38
2019-03-13T03:00:29.979Z,3.78
2019-03-13T03:06:25.020Z,3.28
2019-03-13T03:12:20.001Z,2.63
2019-03-13T03:18:14.982Z,2.48
2019-03-13T03:24:10.041Z,2.31
2019-03-13T03:30:05.017Z,2.53
2019-03-13T03:36:00.008Z,2.57
2019-03-13T03:41:55.026Z,3.8
2019-03-13T03:47:50.035Z,2.58
2019-03-13T03:53:45.060Z,2.45
2019-03-13T03:59:40.042Z,2.46
2019-03-13T04:05:35.017Z,2.72
2019-03-13T04:11:30.034Z,3.12
2019-03-13T04:17:25.035Z,3.47
2019-03-13T04:23:20.038Z,3.54
2019-03-13T04:29:15.025Z,3.67
2019-03-13T04:35:10.049Z,3.05
2019-03-13T04:41:05.059Z,2.64
2019-03-13T04:47:00.058Z,2.24
2019-03-13T04:52:55.031Z,3.37
2019-03-13T04:58:50.068Z,4.01
2019-03-13T05:04:45.084Z,4.13
2019-03-13T05:10:40.059Z,4.5
2019-03-13T05:16:35.079Z,4.2
2019-03-13T05:22:30.059Z,4.96
2019-03-13T05:28:25.059Z,5.12
2019-03-13T05:34:20.192Z,4.92
2019-03-13T05:40:15.067Z,4.63
2019-03-13T05:46:10.076Z,4.52
2019-03-13T05:52:05.062Z,4.58
2019-03-13T05:58:00.095Z,4.36
2019-03-13T06:03:55.093Z,6.62
2019-03-13T06:09:50.099Z,6.39
2019-03-13T06:15:45.105Z,6.4
2019-03-13T06:21:40.090Z,6.72
2019-03-13T06:27:35.088Z,7.11
2019-03-13T06:33:30.100Z,7.11
2019-03-13T06:39:25.109Z,13.11
2019-03-13T06:45:22.931Z,8.04
2019-03-13T06:51:15.099Z,6.3
2019-03-13T06:57:10.117Z,7.42
2019-03-13T07:03:05.107Z,6.73
2019-03-13T07:09:00.128Z,5.79
2019-03-13T07:14:55.102Z,5.84
2019-03-13T07:20:50.118Z,5.99
2019-03-13T07:26:45.152Z,6.2
2019-03-13T07:32:40.128Z,5.45
2019-03-13T07:38:35.200Z,6.28
2019-03-13T07:44:30.135Z,8.72
2019-03-13T07:50:25.123Z,9.55
2019-03-13T07:56:20.183Z,7
2019-03-13T08:02:15.236Z,8.45
2019-03-13T08:08:10.154Z,9.44
2019-03-13T08:14:05.164Z,9.29
2019-03-13T08:20:00.198Z,8.77
2019-03-13T08:25:55.143Z,11.42
2019-03-13T08:31:50.152Z,9.55
2019-03-13T08:37:45.173Z,9.44
2019-03-13T08:43:40.179Z,9.45
2019-03-13T08:49:35.163Z,8.58
2019-03-13T08:55:30.210Z,7.31
2019-03-13T09:01:25.159Z,6.94
2019-03-13T09:07:20.170Z,5.89
2019-03-13T09:13:15.181Z,5.99
2019-03-13T09:19:10.184Z,6.64
2019-03-13T09:25:11.489Z,7.15
2019-03-13T09:31:00.172Z,7.23
2019-03-13T09:36:55.195Z,5.94
2019-03-13T09:42:50.199Z,6
2019-03-13T09:48:45.215Z,6.04
2019-03-13T09:54:40.194Z,5.67
2019-03-13T10:00:35.226Z,5.69
2019-03-13T10:06:30.216Z,6.77
2019-03-13T10:12:25.248Z,6.3
2019-03-13T10:18:20.240Z,8.17
2019-03-13T10:24:15.236Z,14.49
2019-03-13T10:30:10.251Z,12.31
2019-03-13T10:36:05.236Z,12.04
2019-03-13T10:42:00.319Z,14.86
2019-03-13T10:47:55.275Z,19.59
2019-03-13T10:53:50.249Z,17.83
2019-03-13T10:59:45.254Z,15.52
2019-03-13T11:05:40.266Z,18.08
2019-03-13T11:11:35.307Z,13.2
2019-03-13T11:17:30.263Z,13.64
2019-03-13T11:23:25.257Z,11.26
2019-03-13T11:29:20.256Z,9.03
2019-03-13T11:35:15.250Z,9.31
2019-03-13T11:41:10.274Z,10.63
2019-03-13T11:47:05.251Z,11.26
2019-03-13T11:53:00.263Z,11.32
2019-03-13T11:58:55.271Z,11.18
2019-03-13T12:04:50.281Z,9.67
2019-03-13T12:10:45.272Z,10.45
2019-03-13T12:16:40.361Z,13.42
2019-03-13T12:22:35.276Z,12.05
2019-03-13T12:28:30.288Z,15.06
2019-03-13T12:34:25.339Z,16.41
2019-03-13T12:40:20.305Z,13.65
2019-03-13T12:46:15.290Z,11.21
2019-03-13T12:52:10.311Z,7.64
2019-03-13T12:58:05.305Z,7.55
2019-03-13T13:04:00.300Z,7.33
2019-03-13T13:09:55.306Z,8.24
2019-03-13T13:15:50.315Z,7.37
2019-03-13T13:21:45.325Z,7.96
2019-03-13T13:27:40.306Z,9.33
2019-03-13T13:33:35.314Z,12.88
2019-03-13T13:39:30.334Z,11.81
2019-03-13T13:45:25.324Z,9.11
2019-03-13T13:51:20.315Z,9.93
2019-03-13T13:57:15.317Z,9.95
2019-03-13T14:03:10.327Z,7.56
2019-03-13T14:09:05.351Z,7.37
2019-03-13T14:15:00.490Z,7.29
2019-03-13T14:20:55.329Z,6.54
2019-03-13T14:26:50.337Z,9.93
2019-03-13T14:32:45.359Z,8.67
2019-03-13T14:38:40.349Z,7.76
2019-03-13T14:44:35.378Z,6.55
2019-03-13T14:50:30.378Z,6.38
2019-03-13T14:56:25.354Z,6.22
2019-03-13T15:02:20.373Z,7.26
2019-03-13T15:08:15.364Z,11.38
2019-03-13T15:14:10.373Z,10.47
2019-03-13T15:20:05.418Z,9.62
2019-03-13T15:26:00.376Z,8.86
2019-03-13T15:31:55.383Z,4.83
2019-03-13T15:37:50.502Z,3.02
2019-03-13T15:43:45.371Z,1.7
2019-03-13T15:49:40.374Z,1.74
2019-03-13T15:55:35.382Z,1.95
2019-03-13T16:01:30.400Z,2.61
2019-03-13T16:07:25.417Z,2.41
2019-03-13T16:13:20.440Z,2.61
2019-03-13T16:19:15.429Z,2.74
2019-03-13T16:25:10.428Z,4.64
2019-03-13T16:31:05.411Z,4.35
2019-03-13T16:37:00.408Z,5.81
2019-03-13T16:42:55.407Z,8.29
2019-03-13T16:48:50.496Z,5.81
2019-03-13T16:54:45.430Z,3.32
2019-03-13T17:00:40.417Z,7.33
2019-03-13T17:06:35.439Z,10.91
2019-03-13T17:12:30.441Z,10.88
2019-03-13T17:18:25.472Z,9.22
2019-03-13T17:24:20.425Z,8.79
2019-03-13T17:30:15.439Z,8.59
2019-03-13T17:36:10.467Z,11.74
2019-03-13T17:42:05.460Z,11.88
2019-03-13T17:48:00.475Z,10.77
2019-03-13T17:53:55.468Z,20.09
2019-03-13T17:59:50.465Z,14.73
2019-03-13T18:05:45.450Z,12.37
2019-03-13T18:11:40.487Z,10.41
2019-03-13T18:17:35.504Z,11.47
2019-03-13T18:23:30.476Z,11.96
2019-03-13T18:29:25.479Z,12.79
2019-03-13T18:35:20.483Z,13.3
2019-03-13T18:41:15.530Z,8.74
2019-03-13T18:47:10.500Z,8.2
2019-03-13T18:53:05.543Z,8.34
2019-03-13T18:59:00.547Z,9.08
2019-03-13T19:04:57.571Z,10.08
2019-03-13T19:10:50.478Z,11.77
2019-03-13T19:16:45.509Z,11.55
2019-03-13T19:22:40.499Z,7.74
2019-03-13T19:28:35.490Z,4.86
2019-03-13T19:34:30.501Z,7.94
2019-03-13T19:40:25.496Z,7.46
2019-03-13T19:46:20.517Z,9.12
2019-03-13T19:52:15.506Z,10.65
2019-03-13T19:58:10.534Z,7.37
2019-03-13T20:04:05.532Z,7.15
2019-03-13T20:10:00.566Z,11.13
2019-03-13T20:15:55.533Z,8.99
2019-03-13T20:21:50.523Z,6.95
2019-03-13T20:27:45.546Z,7.82
2019-03-13T20:33:40.535Z,8.54
2019-03-13T20:39:35.565Z,5.23
2019-03-13T20:45:30.542Z,6.42
2019-03-13T20:51:25.563Z,7.25
2019-03-13T20:57:20.578Z,8.65
2019-03-13T21:03:15.559Z,10
2019-03-13T21:09:10.570Z,11.07
2019-03-13T21:15:05.563Z,10.54
2019-03-13T21:21:00.590Z,9.24
2019-03-13T21:26:55.568Z,10.08
2019-03-13T21:32:50.602Z,8.06
2019-03-13T21:38:45.589Z,6.96
2019-03-13T21:44:40.568Z,6.99
2019-03-13T21:50:35.577Z,10.7
2019-03-13T21:56:30.598Z,7.52
2019-03-13T22:02:32.454Z,9.35
2019-03-13T22:08:20.598Z,9.51
2019-03-13T22:14:15.601Z,9.55
2019-03-13T22:20:11.494Z,9.08
2019-03-13T22:26:05.703Z,8.57
2019-03-13T22:32:00.613Z,7.36
2019-03-13T22:37:55.613Z,6.63
2019-03-13T22:43:50.607Z,6.4
2019-03-13T22:49:45.622Z,6.21
2019-03-13T22:55:41.097Z,6.61
2019-03-13T23:01:35.607Z,6.69
2019-03-13T23:07:32.371Z,10.02
2019-03-13T23:13:25.734Z,7.84
2019-03-13T23:19:20.718Z,8
2019-03-13T23:25:15.642Z,7.75
2019-03-13T23:31:10.647Z,8.27
2019-03-13T23:37:05.664Z,8.86
2019-03-13T23:43:00.629Z,8.69
2019-03-13T23:48:55.663Z,7.01
2019-03-13T23:54:50.642Z,7.5
